Wetterverlauf

Letzte Wetterlage 31.08.2014 07:54
Wetterdiagramm
Tabellarische Darstellung
Datum Temperatur Windchill Feuchte Luftdruck Windrichtung Windstärke Niederschlag
31.08.2014 08:04 11,9 °C 11,9 °C 94 % 1013,1 hPa 225 0.0 0,00 mm
31.08.2014 07:54 11,8 °C 11,8 °C 94 % 1013,2 hPa 270 0.0 0,00 mm
31.08.2014 07:44 11,8 °C 11,8 °C 94 % 1013,1 hPa 225 0.0 0,00 mm
31.08.2014 07:34 11,7 °C 11,7 °C 94 % 1013,1 hPa 180 0.0 0,00 mm
31.08.2014 07:24 11,5 °C 11,5 °C 94 % 1013,2 hPa 225 0.7 0,00 mm
31.08.2014 07:14 11,4 °C 11,4 °C 94 % 1013,2 hPa 270 0.0 0,00 mm
31.08.2014 07:04 11,4 °C 11,4 °C 94 % 1013,3 hPa 225 0.0 0,00 mm
31.08.2014 06:54 11,3 °C 11,3 °C 94 % 1013,4 hPa 203 0.0 0,00 mm
31.08.2014 06:44 11,2 °C 11,2 °C 94 % 1013,3 hPa 225 0.0 0,00 mm
31.08.2014 06:34 11,1 °C 11,1 °C 94 % 1013,3 hPa 180 0.0 0,00 mm
31.08.2014 06:24 11,3 °C 11,3 °C 94 % 1013,3 hPa 225 0.0 0,00 mm
31.08.2014 06:14 11,0 °C 11,0 °C 94 % 1013,3 hPa 203 0.3 0,00 mm
31.08.2014 06:04 11,0 °C 11,0 °C 94 % 1013,3 hPa 180 0.0 0,00 mm
31.08.2014 05:54 11,2 °C 11,2 °C 94 % 1013,2 hPa 180 0.0 0,00 mm
31.08.2014 05:44 11,3 °C 11,3 °C 94 % 1013,2 hPa 180 0.0 0,00 mm
31.08.2014 05:34 11,5 °C 11,5 °C 94 % 1013,3 hPa 180 0.0 0,00 mm
31.08.2014 05:24 11,7 °C 11,7 °C 94 % 1013,1 hPa 180 0.0 0,00 mm
31.08.2014 05:14 11,8 °C 11,8 °C 94 % 1013,1 hPa 225 0.0 0,00 mm
31.08.2014 05:04 11,9 °C 11,9 °C 94 % 1013,2 hPa 225 0.0 0,00 mm
31.08.2014 04:54 12,0 °C 12,0 °C 94 % 1013,3 hPa 225 0.0 0,00 mm
31.08.2014 04:44 12,1 °C 12,1 °C 94 % 1013,4 hPa 270 0.0 0,00 mm
31.08.2014 04:34 12,0 °C 12,0 °C 94 % 1013,3 hPa 203 0.0 0,00 mm
31.08.2014 04:24 12,2 °C 12,2 °C 94 % 1013,4 hPa 225 0.0 0,00 mm
31.08.2014 04:14 12,3 °C 12,3 °C 94 % 1013,4 hPa 225 0.3 0,00 mm
31.08.2014 04:04 12,4 °C 12,4 °C 94 % 1013,6 hPa 225 0.0 0,00 mm
Empfehlen Sie wetter.com
| Mehr
Neue Wetterwarnung

Neue Niederschlagsmeldung
Neue Meldung
Regen Liveticker
    sehr starker Regen/Gewitter
    starker Regen/Gewitter
    mäßiger bis starker Regen
    mäßiger Regen
    leichter bis mäßiger Regen
    kein Regen